createdAt,value
2017-11-07T00:00:42.939Z,15.80
2017-11-07T00:03:10.468Z,19.07
2017-11-07T00:05:37.973Z,16.03
2017-11-07T00:08:05.441Z,14.80
2017-11-07T00:10:32.916Z,12.77
2017-11-07T00:13:01.147Z,14.47
2017-11-07T00:15:28.627Z,13.80
2017-11-07T00:17:56.108Z,15.87
2017-11-07T00:20:24.364Z,15.10
2017-11-07T00:22:53.354Z,17.13
2017-11-07T00:25:20.820Z,14.57
2017-11-07T00:27:48.303Z,16.43
2017-11-07T00:30:15.763Z,15.17
2017-11-07T00:32:43.243Z,16.07
2017-11-07T00:35:10.711Z,17.90
2017-11-07T00:37:38.305Z,15.23
2017-11-07T00:40:05.775Z,15.20
2017-11-07T00:42:34.038Z,14.07
2017-11-07T00:45:01.520Z,14.10
2017-11-07T00:47:29.755Z,15.00
2017-11-07T00:49:57.244Z,12.63
2017-11-07T00:52:25.493Z,13.80
2017-11-07T00:54:53.067Z,17.27
2017-11-07T00:57:20.552Z,14.50
2017-11-07T00:59:48.787Z,14.07
2017-11-07T01:02:16.268Z,13.80
2017-11-07T01:04:43.740Z,15.07
2017-11-07T01:07:11.991Z,15.77
2017-11-07T01:09:39.462Z,17.10
2017-11-07T01:12:06.936Z,17.77
2017-11-07T01:14:35.183Z,14.87
2017-11-07T01:17:02.684Z,17.83
2017-11-07T01:19:30.156Z,16.03
2017-11-07T01:21:57.645Z,13.70
2017-11-07T01:27:18.235Z,17.50
2017-11-07T01:29:45.700Z,16.03
2017-11-07T01:32:13.181Z,18.20
2017-11-07T01:34:40.647Z,14.30
2017-11-07T01:37:08.131Z,16.77
2017-11-07T01:39:36.358Z,13.10
2017-11-07T01:42:03.833Z,15.10
2017-11-07T01:44:31.308Z,17.60
2017-11-07T01:46:58.796Z,14.20
2017-11-07T01:49:27.033Z,15.00
2017-11-07T01:51:54.564Z,13.37
2017-11-07T01:54:22.041Z,13.50
2017-11-07T01:56:49.528Z,14.87
2017-11-07T01:59:17.782Z,17.10
2017-11-07T02:01:45.248Z,12.47
2017-11-07T02:04:12.747Z,12.10
2017-11-07T02:06:40.208Z,14.97
2017-11-07T02:09:07.685Z,16.47
2017-11-07T02:11:35.156Z,16.43
2017-11-07T02:14:02.632Z,15.63
2017-11-07T02:16:30.095Z,12.10
2017-11-07T02:18:57.603Z,12.93
2017-11-07T02:21:25.083Z,12.23
2017-11-07T02:23:52.588Z,12.00
2017-11-07T02:26:20.820Z,14.23
2017-11-07T02:28:48.283Z,9.90
2017-11-07T02:31:15.755Z,16.17
2017-11-07T02:33:43.231Z,12.80
2017-11-07T02:36:10.699Z,12.83
2017-11-07T02:38:38.937Z,12.13
2017-11-07T02:41:06.404Z,11.47
2017-11-07T02:43:33.888Z,14.70
2017-11-07T02:46:02.120Z,14.47
2017-11-07T02:48:29.600Z,15.30
2017-11-07T02:50:57.120Z,15.13
2017-11-07T02:53:24.616Z,15.63
2017-11-07T02:55:52.096Z,18.70
2017-11-07T02:58:20.325Z,20.03
2017-11-07T03:00:47.801Z,14.87
2017-11-07T03:03:15.272Z,15.57
2017-11-07T03:05:42.757Z,15.60
2017-11-07T03:08:10.994Z,16.53
2017-11-07T03:10:38.502Z,17.23
2017-11-07T03:13:06.737Z,17.20
2017-11-07T03:15:34.230Z,16.77
2017-11-07T03:20:55.112Z,19.03
2017-11-07T03:23:22.590Z,18.07
2017-11-07T03:25:50.069Z,18.90
2017-11-07T03:28:18.325Z,17.40
2017-11-07T03:30:45.800Z,18.30
2017-11-07T03:33:14.038Z,19.63
2017-11-07T03:35:41.520Z,27.70
2017-11-07T03:38:08.990Z,22.30
2017-11-07T03:40:37.240Z,21.70
2017-11-07T03:43:04.708Z,20.90
2017-11-07T03:45:32.193Z,20.13
2017-11-07T03:48:00.428Z,25.30
2017-11-07T03:50:27.906Z,26.97
2017-11-07T03:52:55.454Z,26.73
2017-11-07T03:55:22.928Z,18.93
2017-11-07T03:57:51.176Z,29.80
2017-11-07T04:00:18.676Z,31.77
2017-11-07T04:02:46.916Z,38.10
2017-11-07T04:05:14.400Z,39.13
2017-11-07T04:07:42.640Z,35.73
2017-11-07T04:10:10.900Z,56.43
2017-11-07T04:12:38.381Z,42.60
2017-11-07T04:15:05.870Z,49.33
2017-11-07T04:17:33.343Z,46.33
2017-11-07T04:20:01.595Z,48.47
2017-11-07T04:22:29.084Z,43.37
2017-11-07T04:24:57.349Z,52.93
2017-11-07T04:27:25.597Z,54.43
2017-11-07T04:29:53.097Z,54.10
2017-11-07T04:32:20.582Z,56.17
2017-11-07T04:34:48.050Z,65.93
2017-11-07T04:37:15.533Z,55.80
2017-11-07T04:39:43.014Z,61.10
2017-11-07T04:42:11.274Z,60.27
2017-11-07T04:44:38.742Z,62.27
2017-11-07T04:47:06.224Z,66.80
2017-11-07T04:49:33.698Z,70.83
2017-11-07T04:52:01.188Z,64.53
2017-11-07T04:54:28.683Z,54.20
2017-11-07T04:56:56.930Z,61.67
2017-11-07T04:59:24.405Z,54.13
2017-11-07T05:01:51.882Z,57.80
2017-11-07T05:04:20.133Z,67.07
2017-11-07T05:06:47.629Z,78.00
2017-11-07T05:09:15.100Z,62.90
2017-11-07T05:11:42.583Z,55.63
2017-11-07T05:14:10.053Z,74.80
2017-11-07T05:16:37.537Z,56.67
2017-11-07T05:19:05.007Z,63.80
2017-11-07T05:21:33.268Z,61.87
2017-11-07T05:24:00.755Z,56.57
2017-11-07T05:26:28.260Z,43.40
2017-11-07T05:28:55.723Z,52.03
2017-11-07T05:31:23.203Z,42.53
2017-11-07T05:33:51.497Z,43.43
2017-11-07T05:36:19.742Z,47.10
2017-11-07T05:38:47.236Z,47.53
2017-11-07T05:41:15.484Z,39.77
2017-11-07T05:43:42.965Z,39.87
2017-11-07T05:46:11.208Z,35.70
2017-11-07T05:48:38.692Z,37.37
2017-11-07T05:51:06.152Z,40.30
2017-11-07T05:53:34.412Z,31.30
2017-11-07T05:56:01.877Z,35.57
2017-11-07T05:58:29.384Z,40.13
2017-11-07T06:00:56.952Z,34.23
2017-11-07T06:03:24.428Z,31.80
2017-11-07T06:05:51.894Z,36.73
2017-11-07T06:08:19.420Z,36.53
2017-11-07T06:10:46.883Z,42.10
2017-11-07T06:13:14.391Z,40.40
2017-11-07T06:15:41.863Z,38.60
2017-11-07T06:18:10.108Z,44.57
2017-11-07T06:20:39.237Z,37.73
2017-11-07T06:23:07.483Z,36.70
2017-11-07T06:25:34.944Z,39.97
2017-11-07T06:28:02.431Z,49.17
2017-11-07T06:30:30.672Z,38.80
2017-11-07T06:32:58.159Z,47.17
2017-11-07T06:35:26.466Z,39.23
2017-11-07T06:37:53.984Z,36.33
2017-11-07T06:40:21.464Z,32.60
2017-11-07T06:42:49.697Z,33.97
2017-11-07T06:45:17.173Z,36.13
2017-11-07T06:47:44.656Z,39.13
2017-11-07T06:50:12.913Z,39.50
2017-11-07T06:52:40.376Z,42.30
2017-11-07T06:55:08.636Z,41.60
2017-11-07T06:57:36.892Z,37.73
2017-11-07T07:00:04.372Z,37.20
2017-11-07T07:02:31.840Z,37.27
2017-11-07T07:04:59.350Z,36.07
2017-11-07T07:07:26.819Z,38.00
2017-11-07T07:09:54.296Z,35.57
2017-11-07T07:12:22.341Z,43.17
2017-11-07T07:14:49.835Z,43.40
2017-11-07T07:17:17.298Z,39.60
2017-11-07T07:19:44.784Z,41.57
2017-11-07T07:22:12.273Z,39.93
2017-11-07T07:24:39.755Z,42.03
2017-11-07T07:27:07.227Z,36.43
2017-11-07T07:29:34.712Z,37.40
2017-11-07T07:32:02.196Z,30.97
2017-11-07T07:34:29.683Z,41.47
2017-11-07T07:36:57.159Z,33.00
2017-11-07T07:39:24.637Z,38.40
2017-11-07T07:41:52.906Z,37.47
2017-11-07T07:44:20.380Z,39.97
2017-11-07T07:46:48.653Z,38.17
2017-11-07T07:49:16.917Z,41.53
2017-11-07T07:51:44.400Z,34.87
2017-11-07T07:54:11.869Z,39.30
2017-11-07T07:56:39.365Z,39.80
2017-11-07T07:59:06.841Z,39.47
2017-11-07T08:01:34.340Z,39.63
2017-11-07T08:04:01.811Z,40.27
2017-11-07T08:06:29.292Z,35.50
2017-11-07T08:08:56.784Z,34.13
2017-11-07T08:11:24.259Z,35.00
2017-11-07T08:13:52.499Z,40.20
2017-11-07T08:16:19.982Z,39.00
2017-11-07T08:18:47.452Z,33.53
2017-11-07T08:21:15.713Z,36.43
2017-11-07T08:23:43.285Z,45.77
2017-11-07T08:26:11.521Z,38.10
2017-11-07T08:28:39.004Z,41.90
2017-11-07T08:31:06.545Z,32.97
2017-11-07T08:33:34.028Z,33.90
2017-11-07T08:36:02.282Z,36.67
2017-11-07T08:38:29.880Z,35.43
2017-11-07T08:40:58.130Z,35.13
2017-11-07T08:43:25.632Z,36.27
2017-11-07T08:45:53.101Z,33.57
2017-11-07T08:48:20.572Z,28.60
2017-11-07T08:50:48.066Z,30.60
2017-11-07T08:53:15.537Z,33.50
2017-11-07T08:55:43.801Z,29.50
2017-11-07T08:58:11.272Z,30.07
2017-11-07T09:00:39.555Z,30.80
2017-11-07T09:03:07.793Z,29.80
2017-11-07T09:05:35.269Z,28.43
2017-11-07T09:08:03.539Z,28.80
2017-11-07T09:10:31.005Z,36.03
2017-11-07T09:12:58.500Z,30.50
2017-11-07T09:15:26.026Z,25.13
2017-11-07T09:17:53.536Z,24.13
2017-11-07T09:20:21.003Z,28.10
2017-11-07T09:22:48.489Z,29.07
2017-11-07T09:25:16.057Z,29.00
2017-11-07T09:27:43.540Z,30.87
2017-11-07T09:30:11.799Z,27.20
2017-11-07T09:32:40.431Z,28.83
2017-11-07T09:35:07.906Z,28.43
2017-11-07T09:37:35.384Z,28.53
2017-11-07T09:40:02.876Z,27.90
2017-11-07T09:42:31.137Z,22.30
2017-11-07T09:44:59.457Z,22.80
2017-11-07T09:47:26.965Z,24.27
2017-11-07T09:49:54.597Z,25.37
2017-11-07T09:52:22.508Z,24.30
2017-11-07T09:54:50.835Z,25.23
2017-11-07T09:57:18.402Z,28.17
2017-11-07T09:59:45.877Z,25.70
2017-11-07T10:02:13.367Z,27.47
2017-11-07T10:04:41.613Z,32.83
2017-11-07T10:07:09.102Z,30.07
2017-11-07T10:09:37.368Z,29.33
2017-11-07T10:12:04.923Z,26.83
2017-11-07T10:14:33.971Z,20.53
2017-11-07T10:17:03.159Z,26.83
2017-11-07T10:19:31.803Z,27.63
2017-11-07T10:22:00.645Z,27.83
2017-11-07T10:24:30.152Z,25.60
2017-11-07T10:26:57.677Z,28.37
2017-11-07T10:29:25.929Z,29.00
2017-11-07T10:31:53.396Z,27.20
2017-11-07T10:34:20.893Z,27.00
2017-11-07T10:36:48.392Z,24.77
2017-11-07T10:39:15.881Z,25.70
2017-11-07T10:41:44.130Z,26.90
2017-11-07T10:44:11.613Z,26.20
2017-11-07T10:46:39.120Z,25.83
2017-11-07T10:49:06.596Z,27.30
2017-11-07T10:51:34.080Z,23.17
2017-11-07T10:54:01.570Z,22.10
2017-11-07T10:56:29.057Z,20.80
2017-11-07T10:58:56.530Z,25.20
2017-11-07T11:01:24.013Z,19.90
2017-11-07T11:03:51.576Z,25.20
2017-11-07T11:06:20.067Z,25.63
2017-11-07T11:08:48.329Z,23.50
2017-11-07T11:11:16.626Z,29.73
2017-11-07T11:13:45.132Z,28.27
2017-11-07T11:16:12.612Z,30.57
2017-11-07T11:18:40.096Z,30.53
2017-11-07T11:21:07.688Z,29.43
2017-11-07T11:23:35.927Z,27.93
2017-11-07T11:26:03.459Z,28.73
2017-11-07T11:28:31.181Z,32.50
2017-11-07T11:30:59.483Z,26.07
2017-11-07T11:33:26.969Z,27.30
2017-11-07T11:35:54.465Z,31.53
2017-11-07T11:38:22.028Z,30.10
2017-11-07T11:40:49.512Z,33.77
2017-11-07T11:43:17.750Z,37.63
2017-11-07T11:45:45.249Z,36.37
2017-11-07T11:48:12.721Z,32.90
2017-11-07T11:50:40.200Z,40.87
2017-11-07T11:53:07.687Z,35.73
2017-11-07T11:55:35.204Z,42.10
2017-11-07T11:58:02.673Z,42.70
2017-11-07T12:00:30.151Z,41.97
2017-11-07T12:02:59.263Z,32.43
2017-11-07T12:05:26.740Z,38.40
2017-11-07T12:07:54.975Z,38.30
2017-11-07T12:10:22.464Z,36.93
2017-11-07T12:12:49.942Z,35.93
2017-11-07T12:15:18.207Z,36.20
2017-11-07T12:17:46.548Z,36.90
2017-11-07T12:20:14.013Z,41.63
2017-11-07T12:22:41.503Z,39.60
2017-11-07T12:25:09.751Z,37.43
2017-11-07T12:27:37.237Z,36.07
2017-11-07T12:30:05.480Z,44.13
2017-11-07T12:32:33.063Z,39.13
2017-11-07T12:35:00.528Z,42.53
2017-11-07T12:37:28.112Z,47.13
2017-11-07T12:39:56.355Z,39.63
2017-11-07T12:42:23.837Z,43.87
2017-11-07T12:44:51.336Z,45.80
2017-11-07T12:47:18.841Z,50.30
2017-11-07T12:49:47.098Z,41.07
2017-11-07T12:52:14.588Z,41.97
2017-11-07T12:54:42.826Z,39.23
2017-11-07T12:57:10.413Z,40.13
2017-11-07T12:59:38.184Z,39.03
2017-11-07T13:02:06.449Z,40.10
2017-11-07T13:04:33.944Z,35.97
2017-11-07T13:07:01.418Z,30.53
2017-11-07T13:09:28.943Z,36.97
2017-11-07T13:11:57.218Z,34.73
2017-11-07T13:14:25.475Z,40.50
2017-11-07T13:16:53.049Z,34.03
2017-11-07T13:19:20.591Z,34.30
2017-11-07T13:21:48.139Z,26.20
2017-11-07T13:24:15.642Z,24.20
2017-11-07T13:26:43.178Z,25.53
2017-11-07T13:29:10.744Z,27.60
2017-11-07T13:31:38.207Z,23.53
2017-11-07T13:34:06.455Z,25.57
2017-11-07T13:36:33.969Z,25.57
2017-11-07T13:39:01.445Z,27.00
2017-11-07T13:41:28.932Z,26.57
2017-11-07T13:43:56.398Z,27.37
2017-11-07T13:46:23.868Z,26.97
2017-11-07T13:48:52.397Z,33.30
2017-11-07T13:51:19.913Z,27.57
2017-11-07T13:53:48.168Z,36.53
2017-11-07T13:56:15.649Z,30.10
2017-11-07T13:58:43.133Z,29.07
2017-11-07T14:01:10.658Z,30.53
2017-11-07T14:03:38.142Z,29.23
2017-11-07T14:06:05.612Z,31.30
2017-11-07T14:08:33.146Z,34.13
2017-11-07T14:11:01.977Z,31.97
2017-11-07T14:13:29.477Z,34.67
2017-11-07T14:15:56.940Z,32.30
2017-11-07T14:18:24.433Z,28.50
2017-11-07T14:20:52.692Z,30.33
2017-11-07T14:23:21.088Z,30.00
2017-11-07T14:25:48.632Z,29.67
2017-11-07T14:28:16.901Z,34.07
2017-11-07T14:30:45.151Z,30.60
2017-11-07T14:33:12.633Z,35.33
2017-11-07T14:35:40.208Z,33.80
2017-11-07T14:38:08.451Z,38.23
2017-11-07T14:40:35.920Z,34.20
2017-11-07T14:43:03.463Z,35.20
2017-11-07T14:45:31.046Z,32.83
2017-11-07T14:48:00.041Z,33.47
2017-11-07T14:50:27.605Z,29.47
2017-11-07T14:52:55.881Z,37.13
2017-11-07T16:20:20.563Z,60.13
2017-11-07T16:22:48.064Z,57.70
2017-11-07T16:25:15.550Z,61.20
2017-11-07T16:27:43.020Z,56.40
2017-11-07T16:30:10.596Z,49.87
2017-11-07T16:32:38.843Z,64.50
2017-11-07T16:35:06.334Z,53.67
2017-11-07T16:37:33.817Z,49.03
2017-11-07T16:40:02.066Z,61.60
2017-11-07T16:42:29.630Z,48.47
2017-11-07T16:44:57.191Z,52.03
2017-11-07T16:47:25.464Z,48.20
2017-11-07T16:49:52.944Z,51.23
2017-11-07T16:52:21.575Z,44.43
2017-11-07T16:54:49.093Z,47.90
2017-11-07T16:57:17.323Z,43.93
2017-11-07T16:59:44.835Z,42.87
2017-11-07T17:02:13.076Z,43.97
2017-11-07T17:04:42.080Z,37.80
2017-11-07T17:07:09.573Z,37.53
2017-11-07T17:09:37.098Z,31.20
2017-11-07T17:12:04.660Z,31.70
2017-11-07T17:14:32.216Z,38.20
2017-11-07T17:16:59.695Z,33.03
2017-11-07T17:19:27.954Z,41.40
2017-11-07T17:21:56.952Z,35.07
2017-11-07T17:24:24.463Z,39.27
2017-11-07T17:26:51.941Z,38.43
2017-11-07T17:29:19.574Z,38.10
2017-11-07T17:31:47.045Z,40.20
2017-11-07T17:34:14.518Z,39.53
2017-11-07T17:36:42.111Z,39.27
2017-11-07T17:39:10.352Z,38.50
2017-11-07T17:41:37.841Z,33.77
2017-11-07T17:44:06.077Z,33.87
2017-11-07T17:46:33.580Z,42.13
2017-11-07T17:49:01.820Z,35.90
2017-11-07T17:51:29.304Z,45.00
2017-11-07T17:53:58.316Z,37.10
2017-11-07T17:56:26.586Z,32.87
2017-11-07T17:58:54.057Z,39.63
2017-11-07T18:01:22.320Z,35.27
2017-11-07T18:03:50.564Z,29.90
2017-11-07T18:06:18.152Z,32.20
2017-11-07T18:08:46.583Z,38.10
2017-11-07T18:11:14.177Z,38.50
2017-11-07T18:13:41.645Z,32.77
2017-11-07T18:16:09.149Z,40.77
2017-11-07T18:18:36.631Z,41.53
2017-11-07T18:21:04.129Z,34.23
2017-11-07T18:23:31.597Z,39.70
2017-11-07T18:25:59.857Z,33.30
2017-11-07T18:28:27.323Z,32.83
2017-11-07T18:30:54.813Z,34.60
2017-11-07T18:33:22.282Z,34.83
2017-11-07T18:35:49.790Z,48.97
2017-11-07T18:38:17.253Z,65.03
2017-11-07T18:40:44.728Z,48.07
2017-11-07T18:43:12.969Z,56.40
2017-11-07T18:45:40.451Z,67.90
2017-11-07T18:48:07.926Z,60.67
2017-11-07T18:50:36.276Z,43.37
2017-11-07T18:53:03.751Z,42.20
2017-11-07T18:55:32.068Z,33.00
2017-11-07T18:57:59.581Z,34.60
2017-11-07T19:00:27.049Z,37.27
2017-11-07T19:02:54.541Z,31.70
2017-11-07T19:05:22.024Z,36.70
2017-11-07T19:07:49.509Z,40.80
2017-11-07T19:10:16.981Z,29.27
2017-11-07T19:12:44.479Z,36.20
2017-11-07T19:15:12.045Z,41.67
2017-11-07T19:17:39.638Z,32.27
2017-11-07T19:20:07.113Z,44.00
2017-11-07T19:22:34.614Z,45.77
2017-11-07T19:25:02.350Z,33.70
2017-11-07T19:27:30.616Z,32.03
2017-11-07T19:29:59.588Z,29.90
2017-11-07T19:32:27.072Z,39.97
2017-11-07T19:34:54.620Z,38.13
2017-11-07T19:37:23.612Z,36.13
2017-11-07T19:39:51.179Z,36.97
2017-11-07T19:42:19.442Z,32.27
2017-11-07T19:44:46.917Z,36.57
2017-11-07T19:47:15.157Z,32.90
2017-11-07T19:49:42.673Z,28.80
2017-11-07T19:52:11.065Z,30.63
2017-11-07T19:54:38.533Z,31.70
2017-11-07T19:57:06.045Z,32.77
2017-11-07T19:59:33.531Z,34.63
2017-11-07T20:02:01.772Z,35.40
2017-11-07T20:04:29.338Z,29.90
2017-11-07T20:06:58.328Z,30.20
2017-11-07T20:09:25.812Z,35.50
2017-11-07T20:11:54.056Z,33.20
2017-11-07T20:14:21.549Z,36.07
2017-11-07T20:16:49.808Z,35.27
2017-11-07T20:19:18.053Z,36.40
2017-11-07T20:21:47.236Z,33.70
2017-11-07T20:24:14.744Z,41.53
2017-11-07T20:26:42.301Z,46.23
2017-11-07T20:29:09.872Z,42.27
2017-11-07T20:31:38.114Z,43.80
2017-11-07T20:34:05.606Z,40.60
2017-11-07T20:36:33.854Z,34.70
2017-11-07T20:39:01.348Z,39.73
2017-11-07T20:41:29.584Z,38.63
2017-11-07T20:43:57.080Z,47.70
2017-11-07T20:46:25.336Z,35.87
2017-11-07T20:48:52.806Z,56.53
2017-11-07T20:51:21.076Z,34.20
2017-11-07T20:53:48.632Z,44.57
2017-11-07T20:56:16.879Z,48.23
2017-11-07T20:58:44.390Z,51.30
2017-11-07T21:01:12.624Z,44.73
2017-11-07T21:03:40.102Z,44.83
2017-11-07T21:06:07.766Z,40.57
2017-11-07T21:08:35.336Z,48.87
2017-11-07T21:11:03.604Z,53.50
2017-11-07T21:13:32.601Z,57.77
2017-11-07T21:16:00.150Z,64.50
2017-11-07T21:18:27.657Z,58.43
2017-11-07T21:20:55.124Z,52.87
2017-11-07T21:23:22.598Z,51.23
2017-11-07T21:25:51.803Z,54.37
2017-11-07T21:28:19.287Z,60.30
2017-11-07T21:30:46.760Z,63.90
2017-11-07T21:33:14.240Z,66.60
2017-11-07T21:35:41.716Z,69.73
2017-11-07T21:38:09.224Z,73.30
2017-11-07T21:40:36.820Z,66.50
2017-11-07T21:43:05.055Z,69.83
2017-11-07T21:45:34.053Z,61.40
2017-11-07T21:48:01.537Z,53.83
2017-11-07T21:50:29.784Z,65.53
2017-11-07T21:52:57.261Z,55.20
2017-11-07T21:55:25.531Z,65.17
2017-11-07T21:57:52.999Z,54.70
2017-11-07T22:00:21.266Z,66.50
2017-11-07T22:02:49.520Z,73.63
2017-11-07T22:05:17.052Z,58.20
2017-11-07T22:07:44.555Z,62.97
2017-11-07T22:10:17.012Z,53.97
2017-11-07T22:12:44.491Z,61.60
2017-11-07T22:15:12.781Z,56.57
2017-11-07T22:17:41.024Z,63.23
2017-11-07T22:20:08.502Z,60.93
2017-11-07T22:22:45.363Z,57.37
2017-11-07T22:25:27.571Z,57.47
2017-11-07T22:27:55.056Z,58.10
2017-11-07T22:30:23.284Z,72.23
2017-11-07T22:32:50.817Z,61.83
2017-11-07T22:35:18.290Z,72.37
2017-11-07T22:37:45.770Z,61.87
2017-11-07T22:40:13.232Z,56.57
2017-11-07T22:42:40.768Z,54.43
2017-11-07T22:45:08.372Z,58.00
2017-11-07T22:47:37.347Z,65.43
2017-11-07T22:50:05.359Z,63.37
2017-11-07T22:52:33.596Z,56.87
2017-11-07T22:55:01.076Z,64.43
2017-11-07T22:57:28.552Z,67.50
2017-11-07T22:59:56.833Z,57.87
2017-11-07T23:02:25.088Z,60.83
2017-11-07T23:04:53.357Z,62.20
2017-11-07T23:07:20.920Z,56.23
2017-11-07T23:09:48.481Z,69.13
2017-11-07T23:12:16.761Z,60.40
2017-11-07T23:14:45.208Z,57.90
2017-11-07T23:17:12.737Z,55.67
2017-11-07T23:19:40.225Z,62.20
2017-11-07T23:22:07.702Z,68.80
2017-11-07T23:24:35.220Z,58.10
2017-11-07T23:27:02.692Z,73.73
2017-11-07T23:29:30.264Z,59.33
2017-11-07T23:31:57.732Z,67.23
2017-11-07T23:34:26.938Z,70.17
2017-11-07T23:36:54.405Z,81.87
2017-11-07T23:39:21.896Z,71.00
2017-11-07T23:41:49.383Z,61.00
2017-11-07T23:44:16.867Z,66.37
2017-11-07T23:46:45.858Z,68.30
2017-11-07T23:49:13.326Z,69.20
2017-11-07T23:51:40.795Z,73.93
2017-11-07T23:54:08.290Z,65.47
2017-11-07T23:56:35.765Z,65.00
2017-11-07T23:59:03.224Z,68.97
